sensor_id;sensor_type;location;lat;lon;timestamp;pressure;altitude;pressure_sealevel;temperature;humidity
80945;BME280;70400;50.934;11.590;2024-03-08T00:00:23;100638.16;;;-1.24;80.53
80945;BME280;70400;50.934;11.590;2024-03-08T00:01:16;100646.97;;;-1.30;80.89
80945;BME280;70400;50.934;11.590;2024-03-08T00:02:09;100639.19;;;-1.30;81.07
80945;BME280;70400;50.934;11.590;2024-03-08T00:03:00;100639.31;;;-1.33;80.95
80945;BME280;70400;50.934;11.590;2024-03-08T00:03:55;100647.06;;;-1.33;80.83
80945;BME280;70400;50.934;11.590;2024-03-08T00:04:46;100641.19;;;-1.38;81.13
80945;BME280;70400;50.934;11.590;2024-03-08T00:05:36;100642.81;;;-1.34;81.12
80945;BME280;70400;50.934;11.590;2024-03-08T00:06:29;100639.97;;;-1.26;82.33
80945;BME280;70400;50.934;11.590;2024-03-08T00:07:20;100646.00;;;-1.27;81.99
80945;BME280;70400;50.934;11.590;2024-03-08T00:08:14;100643.66;;;-1.34;82.65
80945;BME280;70400;50.934;11.590;2024-03-08T00:09:06;100651.00;;;-1.21;83.04
80945;BME280;70400;50.934;11.590;2024-03-08T00:09:59;100641.19;;;-1.12;83.00
80945;BME280;70400;50.934;11.590;2024-03-08T00:10:49;100641.44;;;-1.19;82.82
80945;BME280;70400;50.934;11.590;2024-03-08T00:12:03;100639.16;;;-1.28;82.91
80945;BME280;70400;50.934;11.590;2024-03-08T00:12:54;100644.56;;;-1.35;83.02
80945;BME280;70400;50.934;11.590;2024-03-08T00:13:45;100639.81;;;-1.22;83.26
80945;BME280;70400;50.934;11.590;2024-03-08T00:14:36;100641.63;;;-1.25;82.78
80945;BME280;70400;50.934;11.590;2024-03-08T00:15:28;100642.53;;;-1.26;82.84
80945;BME280;70400;50.934;11.590;2024-03-08T00:16:20;100632.13;;;-1.25;83.59
80945;BME280;70400;50.934;11.590;2024-03-08T00:17:11;100641.53;;;-1.22;83.82
80945;BME280;70400;50.934;11.590;2024-03-08T00:18:02;100633.50;;;-1.40;83.01
80945;BME280;70400;50.934;11.590;2024-03-08T00:18:53;100640.50;;;-1.43;82.80
80945;BME280;70400;50.934;11.590;2024-03-08T00:19:46;100632.97;;;-1.49;83.60
80945;BME280;70400;50.934;11.590;2024-03-08T00:20:37;100632.63;;;-1.40;84.27
80945;BME280;70400;50.934;11.590;2024-03-08T00:22:32;100638.97;;;-1.49;83.69
80945;BME280;70400;50.934;11.590;2024-03-08T00:23:22;100632.38;;;-1.58;83.22
80945;BME280;70400;50.934;11.590;2024-03-08T00:24:14;100635.16;;;-1.64;83.19
80945;BME280;70400;50.934;11.590;2024-03-08T00:25:05;100630.09;;;-1.67;83.17
80945;BME280;70400;50.934;11.590;2024-03-08T00:26:00;100633.56;;;-1.68;83.50
80945;BME280;70400;50.934;11.590;2024-03-08T00:26:51;100632.47;;;-1.61;83.68
80945;BME280;70400;50.934;11.590;2024-03-08T00:27:42;100627.28;;;-1.61;83.82
80945;BME280;70400;50.934;11.590;2024-03-08T00:28:33;100629.63;;;-1.53;83.75
80945;BME280;70400;50.934;11.590;2024-03-08T00:29:26;100634.91;;;-1.56;83.26
80945;BME280;70400;50.934;11.590;2024-03-08T00:30:23;100624.38;;;-1.50;84.01
80945;BME280;70400;50.934;11.590;2024-03-08T00:31:14;100633.50;;;-1.40;84.46
80945;BME280;70400;50.934;11.590;2024-03-08T00:32:49;100625.50;;;-1.32;84.25
80945;BME280;70400;50.934;11.590;2024-03-08T00:33:40;100622.84;;;-1.31;84.00
80945;BME280;70400;50.934;11.590;2024-03-08T00:34:31;100624.44;;;-1.26;84.18
80945;BME280;70400;50.934;11.590;2024-03-08T00:35:22;100626.88;;;-1.22;84.16
80945;BME280;70400;50.934;11.590;2024-03-08T00:36:13;100622.41;;;-1.18;83.93
80945;BME280;70400;50.934;11.590;2024-03-08T00:37:04;100623.16;;;-1.15;83.83
80945;BME280;70400;50.934;11.590;2024-03-08T00:37:55;100624.06;;;-1.16;84.34
80945;BME280;70400;50.934;11.590;2024-03-08T00:38:47;100620.94;;;-1.25;84.26
80945;BME280;70400;50.934;11.590;2024-03-08T00:39:38;100625.38;;;-1.29;84.03
80945;BME280;70400;50.934;11.590;2024-03-08T00:40:29;100622.09;;;-1.34;84.24
80945;BME280;70400;50.934;11.590;2024-03-08T00:41:20;100623.19;;;-1.41;84.83
80945;BME280;70400;50.934;11.590;2024-03-08T00:42:11;100626.75;;;-1.44;84.57
80945;BME280;70400;50.934;11.590;2024-03-08T00:43:01;100621.56;;;-1.44;84.81
80945;BME280;70400;50.934;11.590;2024-03-08T00:43:57;100619.13;;;-1.48;84.80
80945;BME280;70400;50.934;11.590;2024-03-08T00:44:50;100622.50;;;-1.46;85.21
80945;BME280;70400;50.934;11.590;2024-03-08T00:45:42;100619.13;;;-1.48;84.94
80945;BME280;70400;50.934;11.590;2024-03-08T00:46:33;100613.84;;;-1.45;84.82
80945;BME280;70400;50.934;11.590;2024-03-08T00:47:24;100614.78;;;-1.48;84.75
80945;BME280;70400;50.934;11.590;2024-03-08T00:48:15;100620.22;;;-1.56;85.08
80945;BME280;70400;50.934;11.590;2024-03-08T00:49:06;100615.16;;;-1.59;85.08
80945;BME280;70400;50.934;11.590;2024-03-08T00:49:57;100613.34;;;-1.55;85.30
80945;BME280;70400;50.934;11.590;2024-03-08T00:50:48;100616.88;;;-1.58;85.62
80945;BME280;70400;50.934;11.590;2024-03-08T00:52:25;100622.31;;;-1.67;85.31
80945;BME280;70400;50.934;11.590;2024-03-08T00:53:16;100620.56;;;-1.66;85.69
80945;BME280;70400;50.934;11.590;2024-03-08T00:54:10;100618.06;;;-1.68;85.67
80945;BME280;70400;50.934;11.590;2024-03-08T00:55:00;100614.56;;;-1.67;85.76
80945;BME280;70400;50.934;11.590;2024-03-08T00:55:52;100611.72;;;-1.59;85.54
80945;BME280;70400;50.934;11.590;2024-03-08T00:56:43;100606.44;;;-1.56;85.13
80945;BME280;70400;50.934;11.590;2024-03-08T00:57:34;100616.00;;;-1.58;85.13
80945;BME280;70400;50.934;11.590;2024-03-08T00:58:28;100615.22;;;-1.60;84.79
80945;BME280;70400;50.934;11.590;2024-03-08T00:59:19;100609.09;;;-1.58;84.93
80945;BME280;70400;50.934;11.590;2024-03-08T01:00:13;100605.63;;;-1.57;84.92
80945;BME280;70400;50.934;11.590;2024-03-08T01:01:04;100609.88;;;-1.56;84.80
80945;BME280;70400;50.934;11.590;2024-03-08T01:01:57;100612.63;;;-1.60;84.58
80945;BME280;70400;50.934;11.590;2024-03-08T01:02:49;100609.84;;;-1.54;84.38
80945;BME280;70400;50.934;11.590;2024-03-08T01:03:42;100614.47;;;-1.64;84.82
80945;BME280;70400;50.934;11.590;2024-03-08T01:04:33;100608.88;;;-1.78;84.48
80945;BME280;70400;50.934;11.590;2024-03-08T01:05:24;100608.81;;;-1.75;84.85
80945;BME280;70400;50.934;11.590;2024-03-08T01:06:15;100612.81;;;-1.66;84.57
80945;BME280;70400;50.934;11.590;2024-03-08T01:07:06;100607.91;;;-1.74;84.62
80945;BME280;70400;50.934;11.590;2024-03-08T01:07:57;100604.25;;;-1.68;84.79
80945;BME280;70400;50.934;11.590;2024-03-08T01:08:48;100602.59;;;-1.69;84.87
80945;BME280;70400;50.934;11.590;2024-03-08T01:09:39;100602.56;;;-1.68;84.70
80945;BME280;70400;50.934;11.590;2024-03-08T01:10:30;100603.16;;;-1.61;84.79
80945;BME280;70400;50.934;11.590;2024-03-08T01:11:21;100604.34;;;-1.70;84.42
80945;BME280;70400;50.934;11.590;2024-03-08T01:12:11;100605.91;;;-1.66;84.69
80945;BME280;70400;50.934;11.590;2024-03-08T01:13:02;100603.53;;;-1.72;84.44
80945;BME280;70400;50.934;11.590;2024-03-08T01:13:54;100601.13;;;-1.78;84.84
80945;BME280;70400;50.934;11.590;2024-03-08T01:14:45;100596.97;;;-1.82;85.05
80945;BME280;70400;50.934;11.590;2024-03-08T01:15:36;100601.13;;;-1.78;84.70
80945;BME280;70400;50.934;11.590;2024-03-08T01:16:26;100593.47;;;-1.81;85.20
80945;BME280;70400;50.934;11.590;2024-03-08T01:17:17;100601.84;;;-1.73;84.73
80945;BME280;70400;50.934;11.590;2024-03-08T01:18:08;100597.69;;;-1.79;84.65
80945;BME280;70400;50.934;11.590;2024-03-08T01:19:00;100593.63;;;-1.86;84.66
80945;BME280;70400;50.934;11.590;2024-03-08T01:19:55;100592.44;;;-2.02;84.74
80945;BME280;70400;50.934;11.590;2024-03-08T01:20:48;100594.31;;;-2.07;84.53
80945;BME280;70400;50.934;11.590;2024-03-08T01:22:03;100600.97;;;-2.00;85.74
80945;BME280;70400;50.934;11.590;2024-03-08T01:23:00;100601.81;;;-2.00;86.10
80945;BME280;70400;50.934;11.590;2024-03-08T01:23:51;100593.47;;;-2.08;86.04
80945;BME280;70400;50.934;11.590;2024-03-08T01:24:42;100596.09;;;-2.09;85.86
80945;BME280;70400;50.934;11.590;2024-03-08T01:25:36;100595.06;;;-2.04;86.33
80945;BME280;70400;50.934;11.590;2024-03-08T01:26:27;100592.63;;;-2.08;85.64
80945;BME280;70400;50.934;11.590;2024-03-08T01:27:17;100589.25;;;-2.10;86.29
80945;BME280;70400;50.934;11.590;2024-03-08T01:28:10;100589.34;;;-2.13;86.36
80945;BME280;70400;50.934;11.590;2024-03-08T01:29:02;100585.13;;;-2.16;85.84
80945;BME280;70400;50.934;11.590;2024-03-08T01:29:56;100586.75;;;-2.13;85.73
80945;BME280;70400;50.934;11.590;2024-03-08T01:30:50;100589.72;;;-1.98;85.66
80945;BME280;70400;50.934;11.590;2024-03-08T01:31:47;100583.53;;;-1.93;85.82
80945;BME280;70400;50.934;11.590;2024-03-08T01:32:37;100584.53;;;-1.98;85.48
80945;BME280;70400;50.934;11.590;2024-03-08T01:33:29;100589.75;;;-1.99;85.86
80945;BME280;70400;50.934;11.590;2024-03-08T01:34:20;100586.28;;;-1.98;86.09
80945;BME280;70400;50.934;11.590;2024-03-08T01:35:11;100582.75;;;-1.95;86.06
80945;BME280;70400;50.934;11.590;2024-03-08T01:36:05;100583.50;;;-1.92;86.13
80945;BME280;70400;50.934;11.590;2024-03-08T01:36:56;100585.63;;;-1.78;85.54
80945;BME280;70400;50.934;11.590;2024-03-08T01:37:47;100582.97;;;-1.75;85.07
80945;BME280;70400;50.934;11.590;2024-03-08T01:38:40;100583.75;;;-1.73;84.92
80945;BME280;70400;50.934;11.590;2024-03-08T01:39:31;100584.78;;;-1.79;85.16
80945;BME280;70400;50.934;11.590;2024-03-08T01:40:23;100578.06;;;-1.84;84.97
80945;BME280;70400;50.934;11.590;2024-03-08T01:41:13;100579.69;;;-1.80;85.00
80945;BME280;70400;50.934;11.590;2024-03-08T01:42:06;100582.25;;;-1.80;84.84
80945;BME280;70400;50.934;11.590;2024-03-08T01:44:07;100576.31;;;-1.84;86.12
80945;BME280;70400;50.934;11.590;2024-03-08T01:44:59;100576.81;;;-1.99;85.39
80945;BME280;70400;50.934;11.590;2024-03-08T01:45:51;100580.22;;;-1.97;85.85
80945;BME280;70400;50.934;11.590;2024-03-08T01:46:41;100568.72;;;-2.15;86.00
80945;BME280;70400;50.934;11.590;2024-03-08T01:47:51;100568.22;;;-2.26;85.90
80945;BME280;70400;50.934;11.590;2024-03-08T01:48:42;100567.56;;;-2.33;86.36
80945;BME280;70400;50.934;11.590;2024-03-08T01:49:34;100569.34;;;-2.35;86.91
80945;BME280;70400;50.934;11.590;2024-03-08T01:50:25;100571.91;;;-2.35;87.66
80945;BME280;70400;50.934;11.590;2024-03-08T01:51:18;100573.78;;;-2.40;87.63
80945;BME280;70400;50.934;11.590;2024-03-08T01:51:55;100568.53;;;-2.37;86.92
80945;BME280;70400;50.934;11.590;2024-03-08T01:52:47;100568.81;;;-2.46;87.30
80945;BME280;70400;50.934;11.590;2024-03-08T01:53:38;100567.97;;;-2.47;87.55
80945;BME280;70400;50.934;11.590;2024-03-08T01:54:29;100566.34;;;-2.49;87.44
80945;BME280;70400;50.934;11.590;2024-03-08T01:55:23;100565.44;;;-2.48;87.33
80945;BME280;70400;50.934;11.590;2024-03-08T01:56:14;100567.03;;;-2.44;88.23
80945;BME280;70400;50.934;11.590;2024-03-08T01:57:04;100566.25;;;-2.46;87.82
80945;BME280;70400;50.934;11.590;2024-03-08T01:57:56;100565.06;;;-2.36;88.67
80945;BME280;70400;50.934;11.590;2024-03-08T01:58:46;100564.47;;;-2.44;88.10
80945;BME280;70400;50.934;11.590;2024-03-08T01:59:38;100558.75;;;-2.55;88.14
80945;BME280;70400;50.934;11.590;2024-03-08T02:00:30;100561.53;;;-2.62;88.19
80945;BME280;70400;50.934;11.590;2024-03-08T02:01:24;100567.53;;;-2.61;88.43
80945;BME280;70400;50.934;11.590;2024-03-08T02:02:16;100561.47;;;-2.60;88.06
80945;BME280;70400;50.934;11.590;2024-03-08T02:03:08;100560.53;;;-2.57;88.25
80945;BME280;70400;50.934;11.590;2024-03-08T02:03:59;100565.41;;;-2.47;88.33
80945;BME280;70400;50.934;11.590;2024-03-08T02:04:51;100562.00;;;-2.49;88.14
80945;BME280;70400;50.934;11.590;2024-03-08T02:05:43;100562.84;;;-2.48;87.72
80945;BME280;70400;50.934;11.590;2024-03-08T02:06:40;100563.13;;;-2.57;87.10
80945;BME280;70400;50.934;11.590;2024-03-08T02:07:33;100563.31;;;-2.64;87.23
80945;BME280;70400;50.934;11.590;2024-03-08T02:08:27;100568.50;;;-2.65;87.22
80945;BME280;70400;50.934;11.590;2024-03-08T02:09:18;100561.78;;;-2.71;87.34
80945;BME280;70400;50.934;11.590;2024-03-08T02:10:12;100563.63;;;-2.74;87.52
80945;BME280;70400;50.934;11.590;2024-03-08T02:11:04;100563.66;;;-2.76;87.39
80945;BME280;70400;50.934;11.590;2024-03-08T02:11:54;100557.56;;;-2.73;87.19
80945;BME280;70400;50.934;11.590;2024-03-08T02:12:52;100561.69;;;-2.68;88.14
80945;BME280;70400;50.934;11.590;2024-03-08T02:13:43;100558.19;;;-2.65;88.21
80945;BME280;70400;50.934;11.590;2024-03-08T02:14:33;100554.88;;;-2.70;88.24
80945;BME280;70400;50.934;11.590;2024-03-08T02:15:24;100557.38;;;-2.67;88.38
80945;BME280;70400;50.934;11.590;2024-03-08T02:16:22;100558.19;;;-2.65;88.24
80945;BME280;70400;50.934;11.590;2024-03-08T02:17:13;100557.94;;;-2.57;88.36
80945;BME280;70400;50.934;11.590;2024-03-08T02:18:04;100555.44;;;-2.59;88.07
80945;BME280;70400;50.934;11.590;2024-03-08T02:18:55;100549.50;;;-2.63;87.83
80945;BME280;70400;50.934;11.590;2024-03-08T02:19:47;100553.16;;;-2.70;87.12
80945;BME280;70400;50.934;11.590;2024-03-08T02:20:38;100548.06;;;-2.71;87.03
80945;BME280;70400;50.934;11.590;2024-03-08T02:21:34;100542.66;;;-2.64;87.48
80945;BME280;70400;50.934;11.590;2024-03-08T02:22:25;100553.50;;;-2.52;87.96
80945;BME280;70400;50.934;11.590;2024-03-08T02:23:16;100548.34;;;-2.52;87.94
80945;BME280;70400;50.934;11.590;2024-03-08T02:24:07;100550.97;;;-2.54;87.90
80945;BME280;70400;50.934;11.590;2024-03-08T02:25:05;100547.56;;;-2.54;87.81
80945;BME280;70400;50.934;11.590;2024-03-08T02:25:56;100548.34;;;-2.52;87.85
80945;BME280;70400;50.934;11.590;2024-03-08T02:26:51;100543.94;;;-2.49;88.23
80945;BME280;70400;50.934;11.590;2024-03-08T02:27:51;100542.19;;;-2.48;87.99
80945;BME280;70400;50.934;11.590;2024-03-08T02:28:47;100549.81;;;-2.44;88.70
80945;BME280;70400;50.934;11.590;2024-03-08T02:29:38;100549.03;;;-2.47;88.65
80945;BME280;70400;50.934;11.590;2024-03-08T02:30:31;100540.31;;;-2.43;88.84
80945;BME280;70400;50.934;11.590;2024-03-08T02:31:22;100541.16;;;-2.43;88.49
80945;BME280;70400;50.934;11.590;2024-03-08T02:32:15;100536.69;;;-2.37;88.88
80945;BME280;70400;50.934;11.590;2024-03-08T02:33:07;100539.97;;;-2.32;88.73
80945;BME280;70400;50.934;11.590;2024-03-08T02:34:00;100537.34;;;-2.31;88.43
80945;BME280;70400;50.934;11.590;2024-03-08T02:34:56;100537.78;;;-2.45;87.72
80945;BME280;70400;50.934;11.590;2024-03-08T02:35:48;100544.03;;;-2.52;87.60
80945;BME280;70400;50.934;11.590;2024-03-08T02:36:39;100541.63;;;-2.58;87.47
80945;BME280;70400;50.934;11.590;2024-03-08T02:37:32;100540.66;;;-2.54;88.09
80945;BME280;70400;50.934;11.590;2024-03-08T02:38:24;100544.31;;;-2.61;87.92
80945;BME280;70400;50.934;11.590;2024-03-08T02:39:16;100538.00;;;-2.52;88.49
80945;BME280;70400;50.934;11.590;2024-03-08T02:40:10;100533.53;;;-2.47;88.40
80945;BME280;70400;50.934;11.590;2024-03-08T02:41:03;100539.41;;;-2.42;88.17
80945;BME280;70400;50.934;11.590;2024-03-08T02:41:59;100538.81;;;-2.50;88.34
80945;BME280;70400;50.934;11.590;2024-03-08T02:42:50;100532.72;;;-2.48;88.26
80945;BME280;70400;50.934;11.590;2024-03-08T02:43:43;100534.91;;;-2.35;88.34
80945;BME280;70400;50.934;11.590;2024-03-08T02:44:42;100537.22;;;-2.26;88.46
80945;BME280;70400;50.934;11.590;2024-03-08T02:45:34;100534.63;;;-2.26;88.08
80945;BME280;70400;50.934;11.590;2024-03-08T02:46:25;100532.78;;;-2.23;87.92
80945;BME280;70400;50.934;11.590;2024-03-08T02:47:16;100531.16;;;-2.25;88.20
80945;BME280;70400;50.934;11.590;2024-03-08T02:48:09;100527.75;;;-2.27;87.97
80945;BME280;70400;50.934;11.590;2024-03-08T02:49:01;100537.22;;;-2.26;88.18
80945;BME280;70400;50.934;11.590;2024-03-08T02:49:52;100536.31;;;-2.25;88.64
80945;BME280;70400;50.934;11.590;2024-03-08T02:50:43;100533.88;;;-2.30;88.28
80945;BME280;70400;50.934;11.590;2024-03-08T02:51:35;100528.78;;;-2.31;88.12
80945;BME280;70400;50.934;11.590;2024-03-08T02:52:29;100534.69;;;-2.28;87.89
80945;BME280;70400;50.934;11.590;2024-03-08T02:53:21;100534.69;;;-2.28;88.09
80945;BME280;70400;50.934;11.590;2024-03-08T02:54:13;100527.97;;;-2.33;87.86
80945;BME280;70400;50.934;11.590;2024-03-08T02:55:05;100531.50;;;-2.36;87.70
80945;BME280;70400;50.934;11.590;2024-03-08T02:55:57;100528.72;;;-2.30;88.04
80945;BME280;70400;50.934;11.590;2024-03-08T02:56:49;100528.56;;;-2.25;87.50
80945;BME280;70400;50.934;11.590;2024-03-08T02:57:46;100522.56;;;-2.26;87.29
80945;BME280;70400;50.934;11.590;2024-03-08T02:58:39;100524.34;;;-2.28;86.98
80945;BME280;70400;50.934;11.590;2024-03-08T02:59:33;100526.13;;;-2.30;87.00
80945;BME280;70400;50.934;11.590;2024-03-08T03:00:24;100519.47;;;-2.37;87.26
80945;BME280;70400;50.934;11.590;2024-03-08T03:01:17;100522.09;;;-2.38;87.33
80945;BME280;70400;50.934;11.590;2024-03-08T03:02:12;100517.13;;;-2.45;86.99
80945;BME280;70400;50.934;11.590;2024-03-08T03:03:03;100513.00;;;-2.50;87.38
80945;BME280;70400;50.934;11.590;2024-03-08T03:03:56;100513.00;;;-2.50;87.68
80945;BME280;70400;50.934;11.590;2024-03-08T03:04:48;100514.00;;;-2.54;87.80
80945;BME280;70400;50.934;11.590;2024-03-08T03:05:41;100521.09;;;-2.63;87.55
80945;BME280;70400;50.934;11.590;2024-03-08T03:06:38;100517.78;;;-2.66;87.92
80945;BME280;70400;50.934;11.590;2024-03-08T03:07:32;100511.66;;;-2.62;88.25
80945;BME280;70400;50.934;11.590;2024-03-08T03:08:24;100514.13;;;-2.59;88.16
80945;BME280;70400;50.934;11.590;2024-03-08T03:09:17;100514.22;;;-2.62;88.09
80945;BME280;70400;50.934;11.590;2024-03-08T03:10:17;100511.59;;;-2.60;88.31
80945;BME280;70400;50.934;11.590;2024-03-08T03:11:08;100512.38;;;-2.58;88.07
80945;BME280;70400;50.934;11.590;2024-03-08T03:12:42;100519.44;;;-2.64;88.35
80945;BME280;70400;50.934;11.590;2024-03-08T03:13:33;100508.97;;;-2.59;88.55
80945;BME280;70400;50.934;11.590;2024-03-08T03:14:24;100512.41;;;-2.60;88.34
80945;BME280;70400;50.934;11.590;2024-03-08T03:15:17;100516.81;;;-2.62;88.16
80945;BME280;70400;50.934;11.590;2024-03-08T03:16:08;100510.72;;;-2.59;88.30
80945;BME280;70400;50.934;11.590;2024-03-08T03:17:00;100519.16;;;-2.54;87.92
80945;BME280;70400;50.934;11.590;2024-03-08T03:17:53;100516.66;;;-2.57;88.04
80945;BME280;70400;50.934;11.590;2024-03-08T03:18:44;100518.25;;;-2.53;88.29
80945;BME280;70400;50.934;11.590;2024-03-08T03:19:42;100512.38;;;-2.58;88.36
80945;BME280;70400;50.934;11.590;2024-03-08T03:20:36;100509.81;;;-2.58;88.45
80945;BME280;70400;50.934;11.590;2024-03-08T03:23:22;100519.59;;;-2.70;88.84
80945;BME280;70400;50.934;11.590;2024-03-08T03:24:13;100519.78;;;-2.76;88.80
80945;BME280;70400;50.934;11.590;2024-03-08T03:25:09;100511.22;;;-2.76;89.02
80945;BME280;70400;50.934;11.590;2024-03-08T03:26:02;100514.00;;;-2.84;89.02
80945;BME280;70400;50.934;11.590;2024-03-08T03:26:53;100521.78;;;-2.86;89.50
80945;BME280;70400;50.934;11.590;2024-03-08T03:27:45;100515.69;;;-2.83;90.00
80945;BME280;70400;50.934;11.590;2024-03-08T03:28:36;100517.91;;;-2.71;89.64
80945;BME280;70400;50.934;11.590;2024-03-08T03:29:30;100510.41;;;-2.78;89.68
80945;BME280;70400;50.934;11.590;2024-03-08T03:30:21;100510.66;;;-2.88;89.99
80945;BME280;70400;50.934;11.590;2024-03-08T03:31:12;100510.63;;;-2.86;90.01
80945;BME280;70400;50.934;11.590;2024-03-08T03:32:05;100512.41;;;-2.88;90.23
80945;BME280;70400;50.934;11.590;2024-03-08T03:33:01;100512.41;;;-2.88;90.11
80945;BME280;70400;50.934;11.590;2024-03-08T03:33:52;100509.72;;;-2.85;90.25
80945;BME280;70400;50.934;11.590;2024-03-08T03:34:45;100508.72;;;-2.79;89.92
80945;BME280;70400;50.934;11.590;2024-03-08T03:35:36;100509.69;;;-2.84;89.92
80945;BME280;70400;50.934;11.590;2024-03-08T03:36:29;100512.25;;;-2.82;89.79
80945;BME280;70400;50.934;11.590;2024-03-08T03:37:20;100513.44;;;-2.94;89.64
80945;BME280;70400;50.934;11.590;2024-03-08T03:38:13;100508.84;;;-2.84;89.64
80945;BME280;70400;50.934;11.590;2024-03-08T03:39:05;100507.16;;;-2.85;89.78
80945;BME280;70400;50.934;11.590;2024-03-08T03:40:03;100508.97;;;-2.89;89.90
80945;BME280;70400;50.934;11.590;2024-03-08T03:40:55;100504.56;;;-2.85;90.12
80945;BME280;70400;50.934;11.590;2024-03-08T03:41:48;100505.50;;;-2.88;90.62
80945;BME280;70400;50.934;11.590;2024-03-08T03:42:44;100507.22;;;-2.87;90.71
80945;BME280;70400;50.934;11.590;2024-03-08T03:43:37;100509.78;;;-2.87;90.13
80945;BME280;70400;50.934;11.590;2024-03-08T03:44:30;100509.19;;;-2.95;90.60
80945;BME280;70400;50.934;11.590;2024-03-08T03:45:21;100506.94;;;-3.07;90.03
80945;BME280;70400;50.934;11.590;2024-03-08T03:46:12;100508.47;;;-3.00;90.45
80945;BME280;70400;50.934;11.590;2024-03-08T03:47:04;100504.31;;;-3.06;90.57
80945;BME280;70400;50.934;11.590;2024-03-08T03:47:55;100504.41;;;-3.09;90.40
80945;BME280;70400;50.934;11.590;2024-03-08T03:48:46;100503.47;;;-3.06;90.90
80945;BME280;70400;50.934;11.590;2024-03-08T03:49:37;100502.28;;;-2.94;90.97
80945;BME280;70400;50.934;11.590;2024-03-08T03:50:28;100504.88;;;-2.96;90.90
80945;BME280;70400;50.934;11.590;2024-03-08T03:51:19;100500.75;;;-3.01;90.61
80945;BME280;70400;50.934;11.590;2024-03-08T03:52:11;100500.72;;;-3.00;90.65
80945;BME280;70400;50.934;11.590;2024-03-08T03:53:03;100499.09;;;-3.02;90.62
80945;BME280;70400;50.934;11.590;2024-03-08T03:53:54;100499.91;;;-3.02;90.25
80945;BME280;70400;50.934;11.590;2024-03-08T03:54:49;100500.94;;;-3.08;90.33
80945;BME280;70400;50.934;11.590;2024-03-08T03:55:40;100506.34;;;-3.17;89.80
80945;BME280;70400;50.934;11.590;2024-03-08T03:56:31;100502.00;;;-3.15;90.59
80945;BME280;70400;50.934;11.590;2024-03-08T03:57:25;100494.88;;;-3.07;90.88
80945;BME280;70400;50.934;11.590;2024-03-08T03:58:17;100498.28;;;-3.04;91.03
80945;BME280;70400;50.934;11.590;2024-03-08T03:59:12;100493.00;;;-3.01;91.02
80945;BME280;70400;50.934;11.590;2024-03-08T04:00:06;100499.81;;;-2.99;90.82
80945;BME280;70400;50.934;11.590;2024-03-08T04:01:06;100501.94;;;-3.13;90.13
80945;BME280;70400;50.934;11.590;2024-03-08T04:01:57;100503.03;;;-3.20;90.13
80945;BME280;70400;50.934;11.590;2024-03-08T04:02:47;100507.47;;;-3.25;90.34
80945;BME280;70400;50.934;11.590;2024-03-08T04:03:41;100509.69;;;-3.13;90.96
80945;BME280;70400;50.934;11.590;2024-03-08T04:04:33;100503.69;;;-3.14;91.41
80945;BME280;70400;50.934;11.590;2024-03-08T04:05:24;100501.00;;;-3.11;91.43
80945;BME280;70400;50.934;11.590;2024-03-08T04:06:15;100505.25;;;-3.08;91.44
80945;BME280;70400;50.934;11.590;2024-03-08T04:07:06;100494.69;;;-3.00;91.66
80945;BME280;70400;50.934;11.590;2024-03-08T04:07:57;100492.88;;;-2.97;92.02
80945;BME280;70400;50.934;11.590;2024-03-08T04:08:47;100502.28;;;-2.94;91.67
80945;BME280;70400;50.934;11.590;2024-03-08T04:09:38;100491.03;;;-2.92;91.84
80945;BME280;70400;50.934;11.590;2024-03-08T04:10:31;100492.91;;;-2.98;92.06
80945;BME280;70400;50.934;11.590;2024-03-08T04:11:25;100490.25;;;-2.95;92.16
80945;BME280;70400;50.934;11.590;2024-03-08T04:12:15;100488.69;;;-3.01;92.16
80945;BME280;70400;50.934;11.590;2024-03-08T04:13:09;100494.69;;;-3.00;92.09
80945;BME280;70400;50.934;11.590;2024-03-08T04:14:00;100491.88;;;-2.93;92.09
80945;BME280;70400;50.934;11.590;2024-03-08T04:14:51;100489.25;;;-2.90;91.74
80945;BME280;70400;50.934;11.590;2024-03-08T04:15:46;100492.97;;;-3.00;91.55
80945;BME280;70400;50.934;11.590;2024-03-08T04:16:40;100486.34;;;-3.09;91.35
80945;BME280;70400;50.934;11.590;2024-03-08T04:17:31;100496.28;;;-2.95;91.89
80945;BME280;70400;50.934;11.590;2024-03-08T04:18:22;100490.63;;;-3.08;91.74
80945;BME280;70400;50.934;11.590;2024-03-08T04:19:15;100496.53;;;-3.04;91.62
80945;BME280;70400;50.934;11.590;2024-03-08T04:20:08;100492.50;;;-3.13;91.07
80945;BME280;70400;50.934;11.590;2024-03-08T04:21:02;100491.91;;;-3.22;91.64
80945;BME280;70400;50.934;11.590;2024-03-08T04:21:53;100492.56;;;-3.16;91.74
80945;BME280;70400;50.934;11.590;2024-03-08T04:22:46;100483.19;;;-3.18;92.19
80945;BME280;70400;50.934;11.590;2024-03-08T04:23:40;100483.66;;;-3.06;92.09
80945;BME280;70400;50.934;11.590;2024-03-08T04:24:33;100489.09;;;-3.15;91.78
80945;BME280;70400;50.934;11.590;2024-03-08T04:25:24;100490.13;;;-3.20;92.13
80945;BME280;70400;50.934;11.590;2024-03-08T04:26:25;100485.81;;;-3.20;91.80
80945;BME280;70400;50.934;11.590;2024-03-08T04:27:16;100490.13;;;-3.20;92.02
80945;BME280;70400;50.934;11.590;2024-03-08T04:28:08;100483.16;;;-3.17;92.31
80945;BME280;70400;50.934;11.590;2024-03-08T04:29:02;100487.25;;;-3.10;91.80
80945;BME280;70400;50.934;11.590;2024-03-08T04:29:53;100492.75;;;-3.22;92.04
80945;BME280;70400;50.934;11.590;2024-03-08T04:30:44;100491.13;;;-3.26;92.19
80945;BME280;70400;50.934;11.590;2024-03-08T04:31:36;100489.47;;;-3.29;92.16
80945;BME280;70400;50.934;11.590;2024-03-08T04:32:29;100481.75;;;-3.29;92.22
80945;BME280;70400;50.934;11.590;2024-03-08T04:33:23;100489.63;;;-3.33;92.14
80945;BME280;70400;50.934;11.590;2024-03-08T04:34:14;100486.91;;;-3.29;92.13
80945;BME280;70400;50.934;11.590;2024-03-08T04:35:05;100479.25;;;-3.32;92.07
80945;BME280;70400;50.934;11.590;2024-03-08T04:35:56;100484.38;;;-3.30;92.02
80945;BME280;70400;50.934;11.590;2024-03-08T04:36:50;100484.31;;;-3.29;91.86